Time;durP1;ratioP1;P1;durP2;ratioP2;P2;SDS_P1;SDS_P2;PMS_P1;PMS_P2;Temp;Humidity;BMP_temperature;BMP_pressure;BME280_temperature;BME280_humidity;BME280_pressure;Samples;Min_cycle;Max_cycle;Signal;HPM_P1;HPM_P2
2022/05/30 00:00:46;;;;;;;;;;;;;;;14.00;64.33;99038.31;4358622;32;33550;-85
2022/05/30 00:03:17;;;;;;;;;;;;;;;13.97;64.46;99031.44;4358437;32;35022;-85
2022/05/30 00:05:46;;;;;;;;;;;;;;;14.00;64.44;99028.72;4358004;32;35014;-86
2022/05/30 00:08:15;;;;;;;;;;;;;;;14.29;63.52;99032.81;4363796;32;33267;-85
2022/05/30 00:10:44;;;;;;;;;;;;;;;14.37;63.16;99027.28;4358236;32;34197;-85
2022/05/30 00:13:13;;;;;;;;;;;;;;;14.18;63.95;99036.75;4354727;32;33670;-86
2022/05/30 00:15:41;;;;;;;;;;;;;;;14.27;63.83;99032.00;4343154;33;34510;-85
2022/05/30 00:18:12;;;;;;;;;;;;;;;14.14;64.34;99027.34;4346399;32;34621;-85
2022/05/30 00:20:45;;;;;;;;;;;;;;;14.25;64.05;99023.41;4353209;32;33987;-85
2022/05/30 00:23:14;;;;;;;;;;;;;;;14.33;63.71;99012.69;4348818;32;34740;-85
2022/05/30 00:25:42;;;;;;;;;;;;;;;14.30;63.89;99018.00;4343149;32;34154;-84
2022/05/30 00:28:11;;;;;;;;;;;;;;;14.50;63.44;99014.62;4342865;33;33763;-84
2022/05/30 00:30:40;;;;;;;;;;;;;;;14.58;63.27;99014.34;4342917;33;35069;-85
2022/05/30 00:33:08;;;;;;;;;;;;;;;14.54;63.35;99008.38;4343202;33;34272;-85
2022/05/30 00:35:36;;;;;;;;;;;;;;;14.60;62.96;99002.94;4354549;32;33598;-85
2022/05/30 00:38:07;;;;;;;;;;;;;;;14.59;62.89;98998.59;4357486;32;33264;-85
2022/05/30 00:40:36;;;;;;;;;;;;;;;14.56;62.85;98998.72;4357776;32;34748;-85
2022/05/30 00:43:21;;;;;;;;;;;;;;;14.60;63.13;98989.03;4358782;32;34117;-85
2022/05/30 00:45:50;;;;;;;;;;;;;;;14.56;63.30;98992.66;4352174;32;34848;-84
2022/05/30 00:48:19;;;;;;;;;;;;;;;14.59;62.71;98989.94;4353755;32;33387;-85
2022/05/30 00:50:47;;;;;;;;;;;;;;;14.32;63.82;98984.03;4357655;32;34167;-85
2022/05/30 00:53:17;;;;;;;;;;;;;;;14.47;63.10;98978.19;4354346;32;35054;-85
2022/05/30 00:55:46;;;;;;;;;;;;;;;14.55;62.99;98977.94;4342981;33;35035;-84
2022/05/30 00:58:14;;;;;;;;;;;;;;;14.61;62.72;98975.91;4342908;33;34226;-85
2022/05/30 01:00:43;;;;;;;;;;;;;;;14.47;63.46;98981.66;4348158;33;33915;-85
2022/05/30 01:08:46;;;;;;;;;;;;;;;14.51;63.87;98979.78;4343416;32;33418;-86
2022/05/30 01:11:15;;;;;;;;;;;;;;;14.39;64.34;98973.28;4357684;32;34727;-85
2022/05/30 01:13:43;;;;;;;;;;;;;;;14.46;64.09;98979.13;4354983;32;33775;-85
2022/05/30 01:16:12;;;;;;;;;;;;;;;14.51;63.59;98977.16;4362339;32;34802;-87
2022/05/30 01:18:42;;;;;;;;;;;;;;;14.42;64.23;98975.75;4357031;32;33182;-86
2022/05/30 01:21:31;;;;;;;;;;;;;;;14.52;64.51;98961.44;4356709;32;33778;-86
2022/05/30 01:24:03;;;;;;;;;;;;;;;14.49;64.33;98956.34;4353699;32;33828;-85
2022/05/30 01:26:41;;;;;;;;;;;;;;;14.48;63.53;98964.25;4357107;32;34674;-85
2022/05/30 01:29:12;;;;;;;;;;;;;;;14.46;63.37;98961.69;4343674;32;33985;-85
2022/05/30 01:31:42;;;;;;;;;;;;;;;14.30;63.42;98951.03;4342681;33;33389;-87
2022/05/30 01:34:12;;;;;;;;;;;;;;;14.31;63.24;98944.06;4348465;33;33983;-85
2022/05/30 01:36:41;;;;;;;;;;;;;;;14.27;63.43;98951.13;4342365;33;35937;-85
2022/05/30 01:39:10;;;;;;;;;;;;;;;14.20;63.77;98944.47;4342740;33;34142;-85
2022/05/30 01:41:39;;;;;;;;;;;;;;;14.13;64.18;98944.78;4342516;33;34177;-86
2022/05/30 01:44:08;;;;;;;;;;;;;;;14.33;63.01;98951.81;4351690;32;34357;-85
2022/05/30 01:46:38;;;;;;;;;;;;;;;14.00;64.20;98954.84;4362596;32;35376;-85
2022/05/30 01:49:07;;;;;;;;;;;;;;;14.02;64.30;98958.25;4342336;33;33604;-84
2022/05/30 01:51:35;;;;;;;;;;;;;;;13.95;64.77;98959.41;4342374;33;34565;-85
2022/05/30 01:54:04;;;;;;;;;;;;;;;14.27;63.70;98948.53;4342680;33;33941;-86
2022/05/30 01:56:34;;;;;;;;;;;;;;;14.17;63.66;98941.16;4342759;32;33053;-86
2022/05/30 01:59:04;;;;;;;;;;;;;;;14.22;63.48;98949.63;4347917;33;34011;-85
2022/05/30 02:01:34;;;;;;;;;;;;;;;14.24;63.63;98947.81;4354167;32;33980;-85
2022/05/30 02:04:05;;;;;;;;;;;;;;;14.37;63.05;98950.78;4357388;32;34863;-85
2022/05/30 02:06:35;;;;;;;;;;;;;;;14.30;63.08;98958.88;4357138;32;34067;-85
2022/05/30 02:09:04;;;;;;;;;;;;;;;14.03;64.11;98950.34;4357105;32;32712;-85
2022/05/30 02:11:33;;;;;;;;;;;;;;;14.02;64.15;98948.66;4357927;32;33994;-85
2022/05/30 02:14:02;;;;;;;;;;;;;;;14.15;64.51;98953.41;4354791;32;34018;-85
2022/05/30 02:19:20;;;;;;;;;;;;;;;14.25;63.78;98959.94;4341458;33;33491;-86
2022/05/30 02:21:50;;;;;;;;;;;;;;;14.36;63.00;98957.75;4341472;32;34749;-85
2022/05/30 02:24:18;;;;;;;;;;;;;;;14.18;63.79;98964.56;4346352;32;34334;-84
2022/05/30 02:26:47;;;;;;;;;;;;;;;13.94;64.86;98963.78;4347263;33;32969;-85
2022/05/30 02:29:18;;;;;;;;;;;;;;;14.15;64.18;98966.44;4348181;33;33131;-85
2022/05/30 02:31:49;;;;;;;;;;;;;;;14.09;64.25;98965.78;4342679;33;34143;-85
2022/05/30 02:37:06;;;;;;;;;;;;;;;14.49;62.47;98964.16;4356852;32;34446;-86
2022/05/30 02:39:34;;;;;;;;;;;;;;;14.17;63.97;98964.63;4343359;32;33953;-86
2022/05/30 02:42:06;;;;;;;;;;;;;;;14.28;63.57;98965.91;4347667;32;33475;-86
2022/05/30 02:44:36;;;;;;;;;;;;;;;14.21;63.85;98974.03;4345176;33;34956;-85
2022/05/30 02:47:05;;;;;;;;;;;;;;;14.35;63.39;98971.69;4346463;32;34617;-86
2022/05/30 02:49:36;;;;;;;;;;;;;;;14.46;63.21;98985.19;4351427;32;33377;-85
2022/05/30 02:52:05;;;;;;;;;;;;;;;14.38;63.45;98981.19;4357674;32;34955;-85
2022/05/30 02:54:33;;;;;;;;;;;;;;;14.38;63.69;98986.41;4356948;32;33927;-87
2022/05/30 02:57:03;;;;;;;;;;;;;;;14.54;62.96;98989.28;4362379;32;34077;-85
2022/05/30 02:59:32;;;;;;;;;;;;;;;14.67;62.29;98999.16;4356983;32;33407;-85
2022/05/30 03:02:01;;;;;;;;;;;;;;;14.80;61.14;98998.66;4344918;32;33780;-85
2022/05/30 03:04:31;;;;;;;;;;;;;;;14.60;61.83;98996.88;4342293;33;34256;-85
2022/05/30 03:07:02;;;;;;;;;;;;;;;14.49;62.46;99003.31;4342005;33;34329;-85
2022/05/30 03:09:31;;;;;;;;;;;;;;;14.61;62.17;99006.38;4352894;32;33459;-85
2022/05/30 03:11:59;;;;;;;;;;;;;;;14.57;62.00;99005.66;4341822;33;34083;-84
2022/05/30 03:14:28;;;;;;;;;;;;;;;14.73;61.38;99000.66;4352490;32;33960;-85
2022/05/30 03:16:56;;;;;;;;;;;;;;;14.70;61.57;98998.19;4356654;32;33345;-85
2022/05/30 03:19:28;;;;;;;;;;;;;;;14.70;61.63;99006.84;4356063;32;32901;-85
2022/05/30 03:21:56;;;;;;;;;;;;;;;14.63;62.44;99001.94;4362339;32;33654;-85
2022/05/30 03:24:26;;;;;;;;;;;;;;;14.82;61.54;99008.13;4356863;32;34984;-85
2022/05/30 03:26:55;;;;;;;;;;;;;;;14.97;60.62;99011.00;4356110;32;34799;-85
2022/05/30 03:29:23;;;;;;;;;;;;;;;14.79;61.91;99018.69;4356730;32;33401;-85
2022/05/30 03:31:53;;;;;;;;;;;;;;;14.66;62.27;99020.09;4355689;32;33864;-85
2022/05/30 03:34:21;;;;;;;;;;;;;;;14.92;61.31;99013.81;4357624;32;34116;-85
2022/05/30 03:36:50;;;;;;;;;;;;;;;14.84;61.24;99021.97;4362068;32;34675;-86
2022/05/30 03:39:20;;;;;;;;;;;;;;;14.51;62.25;99013.69;4356766;32;32962;-85
2022/05/30 03:42:00;;;;;;;;;;;;;;;14.64;61.97;99008.84;4356596;32;33341;-85
2022/05/30 03:44:31;;;;;;;;;;;;;;;14.53;62.22;99017.09;4356628;32;34264;-85
2022/05/30 03:46:59;;;;;;;;;;;;;;;14.86;61.42;99009.69;4356436;32;34010;-85
2022/05/30 03:49:29;;;;;;;;;;;;;;;14.36;63.68;99016.94;4350554;32;33377;-85
2022/05/30 03:51:58;;;;;;;;;;;;;;;14.86;61.65;99011.44;4341657;33;34988;-86
2022/05/30 03:54:27;;;;;;;;;;;;;;;14.92;61.38;99009.41;4341851;33;34980;-85
2022/05/30 03:56:55;;;;;;;;;;;;;;;14.94;60.94;99010.22;4341311;33;34205;-85
2022/05/30 03:59:26;;;;;;;;;;;;;;;14.71;61.78;99010.31;4343396;32;33021;-84
2022/05/30 04:02:01;;;;;;;;;;;;;;;14.35;62.89;99010.00;4352005;32;33849;-85
2022/05/30 04:04:30;;;;;;;;;;;;;;;14.75;61.03;99009.28;4361369;32;34485;-85
2022/05/30 04:07:02;;;;;;;;;;;;;;;14.35;62.82;99017.81;4353659;32;33889;-85
2022/05/30 04:09:32;;;;;;;;;;;;;;;14.45;62.17;99021.78;4341339;33;33624;-85
2022/05/30 04:12:04;;;;;;;;;;;;;;;14.59;62.18;99016.03;4341315;32;33722;-85
2022/05/30 04:14:39;;;;;;;;;;;;;;;14.55;62.10;99004.03;4352864;32;34513;-85
2022/05/30 04:17:07;;;;;;;;;;;;;;;14.38;62.46;99009.91;4360868;32;34018;-85
2022/05/30 04:19:37;;;;;;;;;;;;;;;14.42;62.59;99014.91;4356044;32;34111;-85
2022/05/30 04:22:07;;;;;;;;;;;;;;;14.46;62.32;99018.25;4356277;32;33414;-85
2022/05/30 04:24:36;;;;;;;;;;;;;;;14.39;62.74;99027.25;4352309;32;33799;-86
2022/05/30 04:27:05;;;;;;;;;;;;;;;14.54;61.88;99029.25;4355876;32;34501;-85
2022/05/30 04:29:34;;;;;;;;;;;;;;;14.43;63.00;99021.84;4356661;32;32828;-85
2022/05/30 04:32:06;;;;;;;;;;;;;;;14.51;63.00;99027.59;4361823;32;33904;-85
2022/05/30 04:34:36;;;;;;;;;;;;;;;14.46;62.07;99029.53;4355550;32;33765;-85
2022/05/30 04:37:05;;;;;;;;;;;;;;;14.48;62.92;99029.50;4355837;32;34328;-86
2022/05/30 04:39:34;;;;;;;;;;;;;;;14.65;62.46;99032.31;4355232;32;33376;-85
2022/05/30 04:42:05;;;;;;;;;;;;;;;14.85;62.28;99044.53;4356240;32;33246;-85
2022/05/30 04:44:36;;;;;;;;;;;;;;;15.05;61.91;99040.25;4362921;32;34727;-85
2022/05/30 04:47:10;;;;;;;;;;;;;;;15.32;60.17;99044.31;4358011;32;32769;-85
2022/05/30 04:49:39;;;;;;;;;;;;;;;15.14;60.40;99042.47;4358098;32;33400;-85
2022/05/30 04:52:08;;;;;;;;;;;;;;;15.03;61.02;99044.69;4357194;32;33652;-86
2022/05/30 04:54:37;;;;;;;;;;;;;;;15.48;58.84;99041.03;4357577;32;35839;-86
2022/05/30 04:57:07;;;;;;;;;;;;;;;15.55;59.03;99045.09;4362820;32;34073;-85
2022/05/30 04:59:39;;;;;;;;;;;;;;;15.46;58.67;99056.78;4360606;32;33238;-85
2022/05/30 05:02:09;;;;;;;;;;;;;;;15.59;58.02;99041.44;4352797;32;34380;-86
2022/05/30 05:04:39;;;;;;;;;;;;;;;15.82;56.89;99050.88;4352055;32;34955;-85
2022/05/30 05:07:08;;;;;;;;;;;;;;;15.55;58.06;99055.53;4351433;32;34207;-86
2022/05/30 05:09:41;;;;;;;;;;;;;;;15.62;57.64;99070.03;4351593;32;33348;-85
2022/05/30 05:12:13;;;;;;;;;;;;;;;15.25;59.35;99062.94;4359599;32;34233;-86
2022/05/30 05:14:44;;;;;;;;;;;;;;;15.23;58.95;99049.94;4356718;32;32350;-86
2022/05/30 05:17:15;;;;;;;;;;;;;;;15.29;58.82;99052.28;4352208;32;34870;-86
2022/05/30 05:19:44;;;;;;;;;;;;;;;15.21;59.09;99054.38;4355932;32;33605;-86
2022/05/30 05:22:14;;;;;;;;;;;;;;;15.41;59.01;99063.97;4351633;32;34652;-85
2022/05/30 05:24:43;;;;;;;;;;;;;;;15.36;58.78;99072.00;4359525;32;34582;-86
2022/05/30 05:27:15;;;;;;;;;;;;;;;15.32;59.19;99073.06;4362931;32;33588;-85
2022/05/30 05:29:44;;;;;;;;;;;;;;;15.58;58.04;99071.97;4351672;32;32729;-85
2022/05/30 05:32:12;;;;;;;;;;;;;;;15.35;58.38;99075.53;4354738;32;33627;-85
2022/05/30 05:34:42;;;;;;;;;;;;;;;15.54;58.96;99074.78;4355424;32;35145;-85
2022/05/30 05:37:11;;;;;;;;;;;;;;;15.77;57.15;99079.84;4355512;32;34074;-87
2022/05/30 05:39:41;;;;;;;;;;;;;;;15.69;57.57;99078.47;4357826;32;33395;-85
2022/05/30 05:42:10;;;;;;;;;;;;;;;15.36;58.36;99092.06;4352136;32;34733;-86
2022/05/30 05:44:40;;;;;;;;;;;;;;;15.43;59.18;99088.28;4351037;32;34107;-85
2022/05/30 05:47:10;;;;;;;;;;;;;;;15.65;57.83;99093.44;4345157;32;33949;-86
2022/05/30 05:49:41;;;;;;;;;;;;;;;15.49;58.81;99095.88;4348996;32;33034;-86
2022/05/30 05:52:11;;;;;;;;;;;;;;;15.87;57.17;99087.28;4347480;33;34211;-86
2022/05/30 05:54:39;;;;;;;;;;;;;;;15.81;57.55;99098.03;4343100;32;34010;-87
2022/05/30 05:57:09;;;;;;;;;;;;;;;15.96;57.58;99097.34;4352168;32;32555;-87
2022/05/30 05:59:38;;;;;;;;;;;;;;;16.08;57.17;99104.66;4357318;32;33168;-87
2022/05/30 06:02:07;;;;;;;;;;;;;;;16.11;56.23;99107.13;4357565;32;33885;-86
2022/05/30 06:04:37;;;;;;;;;;;;;;;16.36;56.20;99108.66;4362688;32;34171;-87
2022/05/30 06:07:09;;;;;;;;;;;;;;;16.54;55.12;99110.38;4357418;32;33066;-87
2022/05/30 06:09:40;;;;;;;;;;;;;;;16.48;55.26;99110.69;4357503;32;33489;-85
2022/05/30 06:12:09;;;;;;;;;;;;;;;16.60;54.18;99111.88;4353134;32;34015;-87
2022/05/30 06:14:38;;;;;;;;;;;;;;;16.52;53.82;99106.12;4350230;32;35030;-86
2022/05/30 06:17:06;;;;;;;;;;;;;;;16.35;54.29;99117.41;4357548;32;33912;-86
2022/05/30 06:19:35;;;;;;;;;;;;;;;16.39;54.02;99113.72;4353405;32;33274;-86
2022/05/30 06:22:04;;;;;;;;;;;;;;;16.50;54.56;99114.06;4350535;32;34057;-86
2022/05/30 06:24:34;;;;;;;;;;;;;;;16.28;55.40;99110.75;4349482;32;34385;-86
2022/05/30 06:27:04;;;;;;;;;;;;;;;16.45;54.74;99121.28;4353220;32;34624;-87
2022/05/30 06:29:33;;;;;;;;;;;;;;;16.62;54.96;99130.97;4362000;32;33983;-86
2022/05/30 06:32:01;;;;;;;;;;;;;;;16.49;54.26;99128.09;4357265;32;35171;-86
2022/05/30 06:34:31;;;;;;;;;;;;;;;16.51;54.76;99115.78;4356466;32;35026;-86
2022/05/30 06:37:02;;;;;;;;;;;;;;;16.62;53.59;99121.38;4354704;32;33727;-86
2022/05/30 06:39:31;;;;;;;;;;;;;;;16.81;54.42;99129.22;4356212;32;34014;-87
2022/05/30 06:42:01;;;;;;;;;;;;;;;16.67;55.02;99134.22;4356129;32;34037;-87
2022/05/30 06:44:44;;;;;;;;;;;;;;;16.54;54.37;99133.94;4356970;32;34190;-87
2022/05/30 06:47:14;;;;;;;;;;;;;;;16.63;54.41;99137.91;4329944;32;865047;-87
2022/05/30 06:49:54;;;;;;;;;;;;;;;16.94;53.58;99129.50;4354719;32;33880;-86
2022/05/30 06:52:24;;;;;;;;;;;;;;;16.94;53.63;99142.59;4356197;32;34169;-86
2022/05/30 06:54:52;;;;;;;;;;;;;;;17.11;53.50;99136.53;4355743;32;34136;-87
2022/05/30 07:00:10;;;;;;;;;;;;;;;17.38;51.58;99144.81;4362255;32;33269;-87
2022/05/30 07:02:40;;;;;;;;;;;;;;;17.21;51.97;99139.56;4356924;32;34934;-87
2022/05/30 07:05:12;;;;;;;;;;;;;;;17.39;50.94;99141.25;4345542;32;34262;-86
2022/05/30 07:07:43;;;;;;;;;;;;;;;17.58;51.52;99141.16;4341589;32;32647;-86
2022/05/30 07:10:13;;;;;;;;;;;;;;;17.74;52.45;99143.88;4353347;32;33948;-87
2022/05/30 07:12:44;;;;;;;;;;;;;;;17.85;51.75;99133.69;4356880;32;34305;-87
2022/05/30 07:15:13;;;;;;;;;;;;;;;18.19;49.87;99138.94;4357013;32;34085;-86
2022/05/30 07:17:41;;;;;;;;;;;;;;;18.16;49.58;99137.31;4348228;32;34079;-87
2022/05/30 07:20:11;;;;;;;;;;;;;;;18.21;48.80;99139.72;4341481;33;33019;-87
2022/05/30 07:22:41;;;;;;;;;;;;;;;18.20;50.01;99132.78;4341822;33;33696;-87
2022/05/30 07:25:19;;;;;;;;;;;;;;;18.45;49.58;99132.28;4342346;32;32827;-87
2022/05/30 07:27:50;;;;;;;;;;;;;;;18.48;48.89;99130.38;4347629;33;32400;-87
2022/05/30 07:30:20;;;;;;;;;;;;;;;18.94;48.16;99130.47;4355778;32;33129;-87
2022/05/30 07:32:59;;;;;;;;;;;;;;;18.67;46.45;99132.81;4346344;32;33641;-87
2022/05/30 07:35:43;;;;;;;;;;;;;;;18.84;45.99;99129.25;4348453;32;34673;-88
2022/05/30 07:38:17;;;;;;;;;;;;;;;18.67;44.92;99130.16;4349599;32;33610;-87
2022/05/30 07:40:46;;;;;;;;;;;;;;;18.79;43.59;99139.19;4355692;32;34378;-87
2022/05/30 07:43:19;;;;;;;;;;;;;;;18.72;44.03;99143.06;4356089;32;34158;-87
2022/05/30 07:45:48;;;;;;;;;;;;;;;18.68;42.74;99137.13;4361172;32;34029;-86
2022/05/30 07:48:20;;;;;;;;;;;;;;;18.77;43.03;99141.06;4353214;32;33820;-87
2022/05/30 07:50:49;;;;;;;;;;;;;;;18.85;42.12;99135.41;4353825;32;34156;-87
2022/05/30 07:53:18;;;;;;;;;;;;;;;18.95;43.02;99137.41;4355471;32;34011;-87
2022/05/30 07:55:46;;;;;;;;;;;;;;;19.19;41.81;99140.41;4355768;32;34306;-87
2022/05/30 07:58:15;;;;;;;;;;;;;;;19.34;41.26;99137.84;4360955;32;34570;-88
2022/05/30 08:00:46;;;;;;;;;;;;;;;19.44;40.77;99133.72;4354453;32;33975;-88
2022/05/30 08:03:16;;;;;;;;;;;;;;;19.59;41.45;99139.87;4355057;32;34934;-86
2022/05/30 08:05:47;;;;;;;;;;;;;;;19.62;40.82;99134.44;4355109;32;34238;-87
2022/05/30 08:08:18;;;;;;;;;;;;;;;19.44;42.30;99140.78;4356059;32;33528;-86
2022/05/30 08:10:47;;;;;;;;;;;;;;;19.14;42.53;99142.47;4361682;32;33346;-86
2022/05/30 08:13:16;;;;;;;;;;;;;;;18.99;42.57;99148.56;4360197;32;34575;-86
2022/05/30 08:15:47;;;;;;;;;;;;;;;19.05;43.22;99153.50;4354964;32;34232;-87
2022/05/30 08:18:17;;;;;;;;;;;;;;;19.00;42.73;99150.28;4347977;32;34052;-87
2022/05/30 08:20:46;;;;;;;;;;;;;;;19.09;42.75;99155.03;4357750;32;32851;-86
2022/05/30 08:23:17;;;;;;;;;;;;;;;19.27;42.47;99157.53;4358018;32;33744;-86
2022/05/30 08:25:47;;;;;;;;;;;;;;;19.56;41.68;99156.69;4360096;32;34399;-86
2022/05/30 08:28:17;;;;;;;;;;;;;;;19.93;40.20;99157.16;4357390;32;34671;-86
2022/05/30 08:30:47;;;;;;;;;;;;;;;19.88;39.82;99159.22;4357451;32;33340;-86
2022/05/30 08:33:18;;;;;;;;;;;;;;;19.66;40.11;99169.31;4357471;32;34259;-86
2022/05/30 08:35:58;;;;;;;;;;;;;;;19.78;39.20;99173.88;4356128;32;33439;-86
2022/05/30 08:38:33;;;;;;;;;;;;;;;19.94;40.16;99161.50;4357656;32;33905;-86
2022/05/30 08:43:51;;;;;;;;;;;;;;;20.96;38.16;99149.94;4355895;32;34660;-86
2022/05/30 08:46:28;;;;;;;;;;;;;;;21.22;38.65;99138.53;4356238;32;35078;-87
2022/05/30 08:48:59;;;;;;;;;;;;;;;21.45;37.05;99139.66;4357604;32;33704;-86
2022/05/30 08:51:36;;;;;;;;;;;;;;;21.72;38.94;99139.63;4355250;32;33348;-87
2022/05/30 08:54:14;;;;;;;;;;;;;;;22.04;38.60;99152.41;4356943;32;34055;-86
2022/05/30 08:56:43;;;;;;;;;;;;;;;22.12;36.17;99144.78;4362455;32;34274;-87
2022/05/30 08:59:21;;;;;;;;;;;;;;;22.04;34.96;99147.13;4358717;32;33658;-87
2022/05/30 09:01:53;;;;;;;;;;;;;;;21.41;35.13;99159.31;4350765;32;33382;-87
2022/05/30 09:04:24;;;;;;;;;;;;;;;20.98;36.50;99169.16;4353818;32;33822;-87
2022/05/30 09:06:56;;;;;;;;;;;;;;;21.29;37.00;99168.84;4357648;32;33957;-87
2022/05/30 09:09:27;;;;;;;;;;;;;;;21.37;36.92;99176.25;4357961;32;33570;-87
2022/05/30 09:12:03;;;;;;;;;;;;;;;21.40;36.81;99165.53;4362747;32;32702;-87
2022/05/30 09:14:35;;;;;;;;;;;;;;;21.09;37.25;99167.53;4353856;32;34778;-86
2022/05/30 09:17:05;;;;;;;;;;;;;;;21.11;36.88;99172.69;4358472;32;34091;-86
2022/05/30 09:19:34;;;;;;;;;;;;;;;21.15;37.21;99171.53;4356923;32;34930;-87
2022/05/30 09:22:04;;;;;;;;;;;;;;;20.87;36.59;99177.75;4357085;32;33213;-87
2022/05/30 09:24:34;;;;;;;;;;;;;;;20.81;37.33;99179.00;4357198;32;34608;-87
2022/05/30 09:27:04;;;;;;;;;;;;;;;20.77;37.27;99180.13;4361517;32;34353;-87
2022/05/30 09:29:34;;;;;;;;;;;;;;;20.54;37.86;99183.31;4356251;32;34259;-86
2022/05/30 09:32:20;;;;;;;;;;;;;;;20.76;37.73;99178.44;4356817;32;33820;-87
2022/05/30 09:34:53;;;;;;;;;;;;;;;20.88;36.93;99175.00;4354624;32;34214;-86
2022/05/30 09:37:25;;;;;;;;;;;;;;;20.70;37.44;99172.69;4352093;32;35002;-87
2022/05/30 09:39:53;;;;;;;;;;;;;;;20.57;37.61;99165.56;4355563;32;34169;-87
2022/05/30 09:42:24;;;;;;;;;;;;;;;20.89;36.76;99176.69;4361781;32;33467;-87
2022/05/30 09:44:53;;;;;;;;;;;;;;;20.75;36.28;99176.72;4356023;32;32975;-87
2022/05/30 09:47:25;;;;;;;;;;;;;;;20.43;37.63;99190.09;4356552;32;32672;-87
2022/05/30 09:49:56;;;;;;;;;;;;;;;20.25;37.86;99192.09;4356563;32;33655;-87
2022/05/30 09:52:30;;;;;;;;;;;;;;;20.18;37.69;99192.56;4355783;32;33096;-86
2022/05/30 09:54:59;;;;;;;;;;;;;;;20.38;36.46;99197.44;4362041;32;34908;-86
2022/05/30 09:57:30;;;;;;;;;;;;;;;20.22;37.72;99186.16;4354292;32;35178;-87
2022/05/30 10:00:08;;;;;;;;;;;;;;;20.28;38.71;99196.31;4348112;32;33841;-87
2022/05/30 10:02:45;;;;;;;;;;;;;;;20.94;38.12;99196.66;4356122;32;33278;-87
2022/05/30 10:05:26;;;;;;;;;;;;;;;20.95;35.96;99193.06;4356267;32;34025;-86
2022/05/30 10:07:56;;;;;;;;;;;;;;;20.84;45.23;99206.94;4355848;32;33963;-87
2022/05/30 10:10:26;;;;;;;;;;;;;;;20.99;36.16;99203.31;4361168;32;35001;-87
2022/05/30 10:12:55;;;;;;;;;;;;;;;21.27;36.72;99196.28;4361214;32;33450;-87
2022/05/30 10:15:28;;;;;;;;;;;;;;;20.94;35.70;99194.03;4354654;32;34931;-87
2022/05/30 10:17:59;;;;;;;;;;;;;;;20.89;36.24;99189.88;4349107;32;33234;-87
2022/05/30 10:20:33;;;;;;;;;;;;;;;20.88;35.62;99196.09;4346791;32;33411;-87
2022/05/30 10:28:47;;;;;;;;;;;;;;;20.85;36.06;99198.94;4361800;32;34624;-87
2022/05/30 10:31:23;;;;;;;;;;;;;;;21.18;36.27;99205.63;4362072;32;34154;-87
2022/05/30 10:34:10;;;;;;;;;;;;;;;21.57;34.27;99198.72;4350814;32;33420;-87
2022/05/30 10:36:46;;;;;;;;;;;;;;;21.51;35.11;99204.41;4339826;32;34910;-86
2022/05/30 10:39:17;;;;;;;;;;;;;;;21.45;34.67;99207.44;4357308;32;33991;-87
2022/05/30 10:41:47;;;;;;;;;;;;;;;21.27;36.35;99215.59;4354153;32;34748;-87
2022/05/30 10:44:18;;;;;;;;;;;;;;;21.37;34.29;99212.34;4355880;32;33152;-87
2022/05/30 10:46:49;;;;;;;;;;;;;;;21.12;34.98;99213.94;4361887;32;34147;-87
2022/05/30 10:49:20;;;;;;;;;;;;;;;20.89;36.33;99215.41;4356483;32;33952;-86
2022/05/30 10:51:52;;;;;;;;;;;;;;;21.00;35.81;99212.94;4353599;32;34809;-86
2022/05/30 10:54:22;;;;;;;;;;;;;;;20.85;35.06;99213.91;4355709;32;33651;-87
2022/05/30 10:56:52;;;;;;;;;;;;;;;20.60;37.15;99204.91;4356317;32;34820;-86
2022/05/30 10:59:23;;;;;;;;;;;;;;;20.78;35.70;99207.31;4359355;32;33814;-87
2022/05/30 11:01:53;;;;;;;;;;;;;;;21.08;35.98;99208.00;4355856;32;34641;-88
2022/05/30 11:04:42;;;;;;;;;;;;;;;21.35;35.17;99212.44;4353205;32;34213;-87
2022/05/30 11:07:32;;;;;;;;;;;;;;;20.98;35.63;99219.25;4353961;32;33798;-87
2022/05/30 11:10:02;;;;;;;;;;;;;;;21.18;34.68;99231.16;4353894;32;34315;-87
2022/05/30 11:12:33;;;;;;;;;;;;;;;21.03;35.35;99233.84;4355564;32;34037;-87
2022/05/30 11:15:03;;;;;;;;;;;;;;;20.90;35.36;99240.84;4354295;32;32929;-87
2022/05/30 11:18:01;;;;;;;;;;;;;;;21.00;35.57;99233.19;4339806;32;33195;-87
2022/05/30 11:20:32;;;;;;;;;;;;;;;21.34;36.18;99238.94;4356242;32;34159;-87
2022/05/30 11:23:01;;;;;;;;;;;;;;;21.47;35.96;99247.78;4354791;32;34120;-87
2022/05/30 11:25:34;;;;;;;;;;;;;;;21.52;34.89;99240.41;4353837;32;33134;-86
2022/05/30 11:28:04;;;;;;;;;;;;;;;21.64;35.25;99251.94;4352897;32;34900;-87
2022/05/30 11:30:43;;;;;;;;;;;;;;;21.48;34.81;99252.97;4356297;32;33615;-87
2022/05/30 11:33:16;;;;;;;;;;;;;;;21.49;35.52;99244.09;4361348;32;34085;-87
2022/05/30 11:35:45;;;;;;;;;;;;;;;21.25;35.43;99238.59;4360117;32;33371;-87
2022/05/30 11:38:19;;;;;;;;;;;;;;;21.04;35.52;99234.69;4355107;32;34182;-87
2022/05/30 11:40:51;;;;;;;;;;;;;;;21.26;35.04;99228.88;4354639;32;35032;-87
2022/05/30 11:43:35;;;;;;;;;;;;;;;21.24;35.06;99233.44;4356417;32;35035;-87
2022/05/30 11:46:05;;;;;;;;;;;;;;;21.35;35.05;99235.34;4356813;32;33343;-87
2022/05/30 11:48:36;;;;;;;;;;;;;;;21.29;34.75;99234.81;4359914;32;33767;-87
2022/05/30 11:51:09;;;;;;;;;;;;;;;21.66;34.74;99232.41;4361111;32;34823;-87
2022/05/30 11:53:52;;;;;;;;;;;;;;;21.58;34.88;99240.00;4359855;32;35098;-87
2022/05/30 11:56:22;;;;;;;;;;;;;;;21.60;33.93;99226.69;4358779;32;33675;-87
2022/05/30 11:58:57;;;;;;;;;;;;;;;21.40;33.98;99230.66;4360623;32;34780;-87
2022/05/30 12:01:26;;;;;;;;;;;;;;;21.60;34.52;99232.84;4360178;32;34077;-87
2022/05/30 12:04:11;;;;;;;;;;;;;;;21.74;32.75;99235.38;4363622;32;34181;-87
2022/05/30 12:06:45;;;;;;;;;;;;;;;21.65;34.94;99238.66;4362753;32;33437;-88
2022/05/30 12:09:18;;;;;;;;;;;;;;;21.80;34.50;99233.31;4361058;32;34065;-87
2022/05/30 12:12:10;;;;;;;;;;;;;;;22.14;34.17;99232.72;4353576;32;34739;-87
2022/05/30 12:14:48;;;;;;;;;;;;;;;22.12;33.38;99228.50;4355212;32;34095;-86
2022/05/30 12:17:26;;;;;;;;;;;;;;;21.77;33.01;99237.00;4355592;32;33330;-86
2022/05/30 12:26:00;;;;;;;;;;;;;;;21.62;34.40;99241.47;4361906;32;34007;-86
2022/05/30 12:28:56;;;;;;;;;;;;;;;21.43;34.35;99238.34;4328807;33;33176;-87
2022/05/30 12:31:39;;;;;;;;;;;;;;;21.05;35.93;99231.13;4290923;33;34146;-87
2022/05/30 12:34:08;;;;;;;;;;;;;;;21.35;35.57;99232.72;4290214;33;34797;-87
2022/05/30 12:36:41;;;;;;;;;;;;;;;21.54;34.53;99227.12;4283693;33;33738;-87
2022/05/30 12:39:31;;;;;;;;;;;;;;;21.51;35.01;99222.87;4282904;33;35547;-87
2022/05/30 12:42:00;;;;;;;;;;;;;;;21.77;34.22;99222.94;4280706;33;34808;-87
2022/05/30 12:44:49;;;;;;;;;;;;;;;22.06;34.20;99223.59;4284633;33;33937;-88
2022/05/30 12:47:28;;;;;;;;;;;;;;;22.31;32.55;99218.38;4285019;33;34094;-87
2022/05/30 12:50:11;;;;;;;;;;;;;;;21.90;34.84;99223.81;4286712;33;35764;-87
2022/05/30 12:52:44;;;;;;;;;;;;;;;21.61;34.80;99225.75;4290037;33;34456;-87
2022/05/30 12:55:13;;;;;;;;;;;;;;;21.60;34.22;99210.84;4284218;33;33669;-87
2022/05/30 12:57:42;;;;;;;;;;;;;;;21.47;34.41;99216.94;4282993;33;33871;-87
2022/05/30 13:00:24;;;;;;;;;;;;;;;21.24;35.67;99209.69;4284043;33;32716;-88
2022/05/30 13:03:10;;;;;;;;;;;;;;;21.56;34.50;99209.37;4306390;33;33356;-87
2022/05/30 13:05:44;;;;;;;;;;;;;;;21.57;34.84;99214.56;4323041;33;35349;-87
2022/05/30 13:08:32;;;;;;;;;;;;;;;21.52;34.79;99203.44;4356561;32;34191;-87
2022/05/30 13:11:01;;;;;;;;;;;;;;;21.69;35.32;99207.63;4360579;32;33155;-87
2022/05/30 13:13:29;;;;;;;;;;;;;;;21.92;34.12;99208.72;4356926;32;34630;-87
2022/05/30 13:15:59;;;;;;;;;;;;;;;21.96;34.24;99212.81;4352713;32;33679;-87
2022/05/30 13:18:28;;;;;;;;;;;;;;;22.07;34.33;99215.59;4355164;32;33775;-87
2022/05/30 13:21:00;;;;;;;;;;;;;;;22.16;34.69;99211.47;4352206;32;33056;-87
2022/05/30 13:23:31;;;;;;;;;;;;;;;22.24;34.22;99211.81;4358806;32;34933;-87
2022/05/30 13:26:00;;;;;;;;;;;;;;;22.15;35.05;99226.47;4355010;32;34309;-87
2022/05/30 13:28:30;;;;;;;;;;;;;;;22.00;35.58;99226.69;4352924;32;33490;-87
2022/05/30 13:31:01;;;;;;;;;;;;;;;22.05;35.12;99227.22;4353959;32;33948;-88
2022/05/30 13:33:34;;;;;;;;;;;;;;;22.08;35.04;99227.84;4357281;32;34787;-87
2022/05/30 13:36:04;;;;;;;;;;;;;;;22.06;34.95;99224.47;4357661;32;34189;-87
2022/05/30 13:38:34;;;;;;;;;;;;;;;22.16;35.27;99229.97;4362634;32;34370;-87